sensor_id;sensor_type;location;lat;lon;timestamp;temperature;humidity
2571;DHT22;1295;51.130;6.732;2022-11-20T00:01:23;7.80;99.90
2571;DHT22;1295;51.130;6.732;2022-11-20T00:03:48;7.80;99.90
2571;DHT22;1295;51.130;6.732;2022-11-20T00:06:15;7.80;99.90
2571;DHT22;1295;51.130;6.732;2022-11-20T00:08:39;7.80;99.90
2571;DHT22;1295;51.130;6.732;2022-11-20T00:11:05;7.70;99.90
2571;DHT22;1295;51.130;6.732;2022-11-20T00:13:30;7.80;99.90
2571;DHT22;1295;51.130;6.732;2022-11-20T00:15:57;7.50;99.90
2571;DHT22;1295;51.130;6.732;2022-11-20T00:18:22;7.60;99.90
2571;DHT22;1295;51.130;6.732;2022-11-20T00:20:47;7.70;99.90
2571;DHT22;1295;51.130;6.732;2022-11-20T00:23:13;7.70;99.90
2571;DHT22;1295;51.130;6.732;2022-11-20T00:25:38;7.80;99.90
2571;DHT22;1295;51.130;6.732;2022-11-20T00:28:04;7.70;99.90
2571;DHT22;1295;51.130;6.732;2022-11-20T00:30:30;7.70;99.90
2571;DHT22;1295;51.130;6.732;2022-11-20T00:32:56;7.70;99.90
2571;DHT22;1295;51.130;6.732;2022-11-20T00:35:21;7.70;99.90
2571;DHT22;1295;51.130;6.732;2022-11-20T00:37:46;7.70;99.90
2571;DHT22;1295;51.130;6.732;2022-11-20T00:40:12;7.70;99.90
2571;DHT22;1295;51.130;6.732;2022-11-20T00:42:38;7.70;99.90
2571;DHT22;1295;51.130;6.732;2022-11-20T00:45:04;7.70;99.90
2571;DHT22;1295;51.130;6.732;2022-11-20T00:47:30;7.70;99.90
2571;DHT22;1295;51.130;6.732;2022-11-20T00:49:56;7.70;99.90
2571;DHT22;1295;51.130;6.732;2022-11-20T00:52:22;7.70;99.90
2571;DHT22;1295;51.130;6.732;2022-11-20T00:54:47;7.70;99.90
2571;DHT22;1295;51.130;6.732;2022-11-20T00:57:13;7.70;99.90
2571;DHT22;1295;51.130;6.732;2022-11-20T00:59:38;7.70;99.90
2571;DHT22;1295;51.130;6.732;2022-11-20T01:02:04;7.70;99.90
2571;DHT22;1295;51.130;6.732;2022-11-20T01:04:30;7.60;99.90
2571;DHT22;1295;51.130;6.732;2022-11-20T01:06:55;7.70;99.90
2571;DHT22;1295;51.130;6.732;2022-11-20T01:09:21;7.60;99.90
2571;DHT22;1295;51.130;6.732;2022-11-20T01:11:47;7.60;99.90
2571;DHT22;1295;51.130;6.732;2022-11-20T01:14:14;7.60;99.90
2571;DHT22;1295;51.130;6.732;2022-11-20T01:16:39;7.60;99.90
2571;DHT22;1295;51.130;6.732;2022-11-20T01:19:05;7.60;99.90
2571;DHT22;1295;51.130;6.732;2022-11-20T01:21:30;7.60;99.90
2571;DHT22;1295;51.130;6.732;2022-11-20T01:23:55;7.60;99.90
2571;DHT22;1295;51.130;6.732;2022-11-20T01:26:22;7.60;99.90
2571;DHT22;1295;51.130;6.732;2022-11-20T01:28:46;7.60;99.90
2571;DHT22;1295;51.130;6.732;2022-11-20T01:31:20;7.60;99.90
2571;DHT22;1295;51.130;6.732;2022-11-20T01:33:44;7.60;99.90
2571;DHT22;1295;51.130;6.732;2022-11-20T01:36:11;7.50;99.90
2571;DHT22;1295;51.130;6.732;2022-11-20T01:38:36;7.50;99.90
2571;DHT22;1295;51.130;6.732;2022-11-20T01:41:02;7.60;99.90
2571;DHT22;1295;51.130;6.732;2022-11-20T01:43:27;7.60;99.90
2571;DHT22;1295;51.130;6.732;2022-11-20T01:46:05;7.60;99.90
2571;DHT22;1295;51.130;6.732;2022-11-20T01:48:48;7.60;99.90
2571;DHT22;1295;51.130;6.732;2022-11-20T01:51:14;7.60;99.90
2571;DHT22;1295;51.130;6.732;2022-11-20T01:53:38;7.60;99.90
2571;DHT22;1295;51.130;6.732;2022-11-20T01:56:06;7.70;99.90
2571;DHT22;1295;51.130;6.732;2022-11-20T01:58:32;7.70;99.90
2571;DHT22;1295;51.130;6.732;2022-11-20T02:00:55;7.60;99.90
2571;DHT22;1295;51.130;6.732;2022-11-20T02:03:21;7.60;99.90
2571;DHT22;1295;51.130;6.732;2022-11-20T02:06:04;7.50;99.90
2571;DHT22;1295;51.130;6.732;2022-11-20T02:08:31;7.50;99.90
2571;DHT22;1295;51.130;6.732;2022-11-20T02:10:56;7.40;99.90
2571;DHT22;1295;51.130;6.732;2022-11-20T02:13:22;7.50;99.90
2571;DHT22;1295;51.130;6.732;2022-11-20T02:15:54;7.50;99.90
2571;DHT22;1295;51.130;6.732;2022-11-20T02:18:20;7.40;99.90
2571;DHT22;1295;51.130;6.732;2022-11-20T02:20:46;7.40;99.90
2571;DHT22;1295;51.130;6.732;2022-11-20T02:23:12;7.50;99.90
2571;DHT22;1295;51.130;6.732;2022-11-20T02:25:37;7.50;99.90
2571;DHT22;1295;51.130;6.732;2022-11-20T02:28:03;7.50;99.90
2571;DHT22;1295;51.130;6.732;2022-11-20T02:30:29;7.50;99.90
2571;DHT22;1295;51.130;6.732;2022-11-20T02:32:54;7.50;99.90
2571;DHT22;1295;51.130;6.732;2022-11-20T02:35:39;7.50;99.90
2571;DHT22;1295;51.130;6.732;2022-11-20T02:38:03;7.50;99.90
2571;DHT22;1295;51.130;6.732;2022-11-20T02:40:29;7.50;99.90
2571;DHT22;1295;51.130;6.732;2022-11-20T02:42:56;7.50;99.90
2571;DHT22;1295;51.130;6.732;2022-11-20T02:45:21;7.50;99.90
2571;DHT22;1295;51.130;6.732;2022-11-20T02:47:47;7.50;99.90
2571;DHT22;1295;51.130;6.732;2022-11-20T02:50:12;7.50;99.90
2571;DHT22;1295;51.130;6.732;2022-11-20T02:52:38;7.50;99.90
2571;DHT22;1295;51.130;6.732;2022-11-20T02:55:04;7.50;99.90
2571;DHT22;1295;51.130;6.732;2022-11-20T02:57:30;7.50;99.90
2571;DHT22;1295;51.130;6.732;2022-11-20T02:59:56;7.40;99.90
2571;DHT22;1295;51.130;6.732;2022-11-20T03:02:22;7.40;99.90
2571;DHT22;1295;51.130;6.732;2022-11-20T03:10:16;7.50;99.90
2571;DHT22;1295;51.130;6.732;2022-11-20T03:12:42;7.40;99.90
2571;DHT22;1295;51.130;6.732;2022-11-20T03:15:09;7.40;99.90
2571;DHT22;1295;51.130;6.732;2022-11-20T03:17:34;7.40;99.90
2571;DHT22;1295;51.130;6.732;2022-11-20T03:20:00;7.40;99.90
2571;DHT22;1295;51.130;6.732;2022-11-20T03:22:28;7.40;99.90
2571;DHT22;1295;51.130;6.732;2022-11-20T03:24:51;7.40;99.90
2571;DHT22;1295;51.130;6.732;2022-11-20T03:27:17;7.40;99.90
2571;DHT22;1295;51.130;6.732;2022-11-20T03:29:43;7.40;99.90
2571;DHT22;1295;51.130;6.732;2022-11-20T03:32:08;7.40;99.90
2571;DHT22;1295;51.130;6.732;2022-11-20T03:34:34;7.40;99.90
2571;DHT22;1295;51.130;6.732;2022-11-20T03:37:00;7.40;99.90
2571;DHT22;1295;51.130;6.732;2022-11-20T03:39:26;7.30;99.90
2571;DHT22;1295;51.130;6.732;2022-11-20T03:41:59;7.40;99.90
2571;DHT22;1295;51.130;6.732;2022-11-20T03:44:25;7.40;99.90
2571;DHT22;1295;51.130;6.732;2022-11-20T03:46:51;7.40;99.90
2571;DHT22;1295;51.130;6.732;2022-11-20T03:49:17;7.40;99.90
2571;DHT22;1295;51.130;6.732;2022-11-20T03:51:42;7.40;99.90
2571;DHT22;1295;51.130;6.732;2022-11-20T03:54:09;7.40;99.90
2571;DHT22;1295;51.130;6.732;2022-11-20T03:56:35;7.30;99.90
2571;DHT22;1295;51.130;6.732;2022-11-20T03:59:00;7.30;99.90
2571;DHT22;1295;51.130;6.732;2022-11-20T04:01:29;7.40;99.90
2571;DHT22;1295;51.130;6.732;2022-11-20T04:03:54;7.40;99.90
2571;DHT22;1295;51.130;6.732;2022-11-20T04:06:20;7.40;99.90
2571;DHT22;1295;51.130;6.732;2022-11-20T04:08:44;7.30;99.90
2571;DHT22;1295;51.130;6.732;2022-11-20T04:11:12;7.40;99.90
2571;DHT22;1295;51.130;6.732;2022-11-20T04:13:37;7.30;99.90
2571;DHT22;1295;51.130;6.732;2022-11-20T04:16:04;7.30;99.90
2571;DHT22;1295;51.130;6.732;2022-11-20T04:18:29;7.30;99.90
2571;DHT22;1295;51.130;6.732;2022-11-20T04:20:56;7.30;99.90
2571;DHT22;1295;51.130;6.732;2022-11-20T04:23:20;7.30;99.90
2571;DHT22;1295;51.130;6.732;2022-11-20T04:25:46;7.30;99.90
2571;DHT22;1295;51.130;6.732;2022-11-20T04:28:11;7.30;99.90
2571;DHT22;1295;51.130;6.732;2022-11-20T04:30:37;7.30;99.90
2571;DHT22;1295;51.130;6.732;2022-11-20T04:33:03;7.30;99.90
2571;DHT22;1295;51.130;6.732;2022-11-20T04:35:29;7.40;99.90
2571;DHT22;1295;51.130;6.732;2022-11-20T04:37:55;7.30;99.90
2571;DHT22;1295;51.130;6.732;2022-11-20T04:40:20;7.30;99.90
2571;DHT22;1295;51.130;6.732;2022-11-20T04:42:46;7.30;99.90
2571;DHT22;1295;51.130;6.732;2022-11-20T04:45:12;7.30;99.90
2571;DHT22;1295;51.130;6.732;2022-11-20T04:47:37;7.40;99.90
2571;DHT22;1295;51.130;6.732;2022-11-20T04:50:04;7.30;99.90
2571;DHT22;1295;51.130;6.732;2022-11-20T04:52:30;7.30;99.90
2571;DHT22;1295;51.130;6.732;2022-11-20T04:54:56;7.30;99.90
2571;DHT22;1295;51.130;6.732;2022-11-20T04:57:22;7.30;99.90
2571;DHT22;1295;51.130;6.732;2022-11-20T04:59:47;7.20;99.90
2571;DHT22;1295;51.130;6.732;2022-11-20T05:02:13;7.20;99.90
2571;DHT22;1295;51.130;6.732;2022-11-20T05:04:39;7.20;99.90
2571;DHT22;1295;51.130;6.732;2022-11-20T05:07:05;7.20;99.90
2571;DHT22;1295;51.130;6.732;2022-11-20T05:09:31;7.20;99.90
2571;DHT22;1295;51.130;6.732;2022-11-20T05:11:56;7.20;99.90
2571;DHT22;1295;51.130;6.732;2022-11-20T05:14:22;7.20;99.90
2571;DHT22;1295;51.130;6.732;2022-11-20T05:16:48;7.20;99.90
2571;DHT22;1295;51.130;6.732;2022-11-20T05:19:13;7.20;99.90
2571;DHT22;1295;51.130;6.732;2022-11-20T05:21:40;7.20;99.90
2571;DHT22;1295;51.130;6.732;2022-11-20T05:24:06;7.20;99.90
2571;DHT22;1295;51.130;6.732;2022-11-20T05:26:31;7.20;99.90
2571;DHT22;1295;51.130;6.732;2022-11-20T05:28:57;7.20;99.90
2571;DHT22;1295;51.130;6.732;2022-11-20T05:31:24;7.20;99.90
2571;DHT22;1295;51.130;6.732;2022-11-20T05:33:49;7.10;99.90
2571;DHT22;1295;51.130;6.732;2022-11-20T05:36:15;7.10;99.90
2571;DHT22;1295;51.130;6.732;2022-11-20T05:38:40;7.10;99.90
2571;DHT22;1295;51.130;6.732;2022-11-20T05:41:14;7.20;99.90
2571;DHT22;1295;51.130;6.732;2022-11-20T05:43:41;7.20;99.90
2571;DHT22;1295;51.130;6.732;2022-11-20T05:46:06;7.20;99.90
2571;DHT22;1295;51.130;6.732;2022-11-20T05:48:31;7.10;99.90
2571;DHT22;1295;51.130;6.732;2022-11-20T05:50:58;7.10;99.90
2571;DHT22;1295;51.130;6.732;2022-11-20T05:53:23;7.10;99.90
2571;DHT22;1295;51.130;6.732;2022-11-20T05:55:55;7.10;99.90
2571;DHT22;1295;51.130;6.732;2022-11-20T05:58:14;7.10;99.90
2571;DHT22;1295;51.130;6.732;2022-11-20T06:00:39;7.10;99.90
2571;DHT22;1295;51.130;6.732;2022-11-20T06:03:05;7.10;99.90
2571;DHT22;1295;51.130;6.732;2022-11-20T06:05:31;7.10;99.90
2571;DHT22;1295;51.130;6.732;2022-11-20T06:07:56;7.10;99.90
2571;DHT22;1295;51.130;6.732;2022-11-20T06:10:22;7.00;99.90
2571;DHT22;1295;51.130;6.732;2022-11-20T06:12:53;7.10;99.90
2571;DHT22;1295;51.130;6.732;2022-11-20T06:15:24;7.00;99.90
2571;DHT22;1295;51.130;6.732;2022-11-20T06:17:53;7.10;99.90
2571;DHT22;1295;51.130;6.732;2022-11-20T06:20:23;7.10;99.90
2571;DHT22;1295;51.130;6.732;2022-11-20T06:22:54;7.10;99.90
2571;DHT22;1295;51.130;6.732;2022-11-20T06:25:20;7.10;99.90
2571;DHT22;1295;51.130;6.732;2022-11-20T06:27:45;7.00;99.90
2571;DHT22;1295;51.130;6.732;2022-11-20T06:30:12;7.10;99.90
2571;DHT22;1295;51.130;6.732;2022-11-20T06:32:37;7.10;99.90
2571;DHT22;1295;51.130;6.732;2022-11-20T06:35:04;7.00;99.90
2571;DHT22;1295;51.130;6.732;2022-11-20T06:37:30;7.00;99.90
2571;DHT22;1295;51.130;6.732;2022-11-20T06:39:55;7.10;99.90
2571;DHT22;1295;51.130;6.732;2022-11-20T06:42:21;7.00;99.90
2571;DHT22;1295;51.130;6.732;2022-11-20T06:44:46;7.00;99.90
2571;DHT22;1295;51.130;6.732;2022-11-20T06:47:12;7.00;99.90
2571;DHT22;1295;51.130;6.732;2022-11-20T06:49:38;7.00;99.90
2571;DHT22;1295;51.130;6.732;2022-11-20T06:52:04;7.00;99.90
2571;DHT22;1295;51.130;6.732;2022-11-20T06:54:29;7.00;99.90
2571;DHT22;1295;51.130;6.732;2022-11-20T06:56:55;6.90;99.90
2571;DHT22;1295;51.130;6.732;2022-11-20T06:59:20;7.00;99.90
2571;DHT22;1295;51.130;6.732;2022-11-20T07:01:46;7.00;99.90
2571;DHT22;1295;51.130;6.732;2022-11-20T07:04:12;7.00;99.90
2571;DHT22;1295;51.130;6.732;2022-11-20T07:06:37;7.00;99.90
2571;DHT22;1295;51.130;6.732;2022-11-20T07:09:03;7.00;99.90
2571;DHT22;1295;51.130;6.732;2022-11-20T07:11:28;6.90;99.90
2571;DHT22;1295;51.130;6.732;2022-11-20T07:13:54;6.90;99.90
2571;DHT22;1295;51.130;6.732;2022-11-20T07:16:20;6.90;99.90
2571;DHT22;1295;51.130;6.732;2022-11-20T07:18:45;6.90;99.90
2571;DHT22;1295;51.130;6.732;2022-11-20T07:21:11;6.90;99.90
2571;DHT22;1295;51.130;6.732;2022-11-20T07:23:37;6.90;99.90
2571;DHT22;1295;51.130;6.732;2022-11-20T07:26:07;6.90;99.90
2571;DHT22;1295;51.130;6.732;2022-11-20T07:28:32;6.80;99.90
2571;DHT22;1295;51.130;6.732;2022-11-20T07:30:58;6.80;99.90
2571;DHT22;1295;51.130;6.732;2022-11-20T07:33:23;6.80;99.90
2571;DHT22;1295;51.130;6.732;2022-11-20T07:35:49;6.80;99.90
2571;DHT22;1295;51.130;6.732;2022-11-20T07:38:15;6.80;99.90
2571;DHT22;1295;51.130;6.732;2022-11-20T07:40:40;6.80;99.90
2571;DHT22;1295;51.130;6.732;2022-11-20T07:43:06;6.80;99.90
2571;DHT22;1295;51.130;6.732;2022-11-20T07:45:32;6.90;99.90
2571;DHT22;1295;51.130;6.732;2022-11-20T07:47:57;6.80;99.90
2571;DHT22;1295;51.130;6.732;2022-11-20T07:50:23;6.80;99.90
2571;DHT22;1295;51.130;6.732;2022-11-20T07:52:49;6.80;99.90
2571;DHT22;1295;51.130;6.732;2022-11-20T07:55:15;6.80;99.90
2571;DHT22;1295;51.130;6.732;2022-11-20T07:57:41;6.80;99.90
2571;DHT22;1295;51.130;6.732;2022-11-20T08:00:08;6.80;99.90
2571;DHT22;1295;51.130;6.732;2022-11-20T08:02:36;6.80;99.90
2571;DHT22;1295;51.130;6.732;2022-11-20T08:05:00;6.70;99.90
2571;DHT22;1295;51.130;6.732;2022-11-20T08:07:26;6.70;99.90
2571;DHT22;1295;51.130;6.732;2022-11-20T08:09:52;6.70;99.90
2571;DHT22;1295;51.130;6.732;2022-11-20T08:12:18;6.70;99.90
2571;DHT22;1295;51.130;6.732;2022-11-20T08:14:49;6.70;99.90
2571;DHT22;1295;51.130;6.732;2022-11-20T08:17:15;6.70;99.90
2571;DHT22;1295;51.130;6.732;2022-11-20T08:19:41;6.80;99.90
2571;DHT22;1295;51.130;6.732;2022-11-20T08:22:07;6.70;99.90
2571;DHT22;1295;51.130;6.732;2022-11-20T08:24:33;6.80;99.90
2571;DHT22;1295;51.130;6.732;2022-11-20T08:26:59;6.70;99.90
2571;DHT22;1295;51.130;6.732;2022-11-20T08:29:26;6.70;99.90
2571;DHT22;1295;51.130;6.732;2022-11-20T08:31:51;6.70;99.90
2571;DHT22;1295;51.130;6.732;2022-11-20T08:34:17;6.70;99.90
2571;DHT22;1295;51.130;6.732;2022-11-20T08:36:43;6.70;99.90
2571;DHT22;1295;51.130;6.732;2022-11-20T08:39:11;6.70;99.90
2571;DHT22;1295;51.130;6.732;2022-11-20T08:41:34;6.70;99.90
2571;DHT22;1295;51.130;6.732;2022-11-20T08:44:01;6.70;99.90
2571;DHT22;1295;51.130;6.732;2022-11-20T08:46:27;6.70;99.90
2571;DHT22;1295;51.130;6.732;2022-11-20T08:48:52;6.70;99.90
2571;DHT22;1295;51.130;6.732;2022-11-20T08:51:17;6.70;99.90
2571;DHT22;1295;51.130;6.732;2022-11-20T08:53:43;6.70;99.90
2571;DHT22;1295;51.130;6.732;2022-11-20T08:56:09;6.70;99.90
2571;DHT22;1295;51.130;6.732;2022-11-20T08:58:35;6.60;99.90
2571;DHT22;1295;51.130;6.732;2022-11-20T09:01:01;6.60;99.90
2571;DHT22;1295;51.130;6.732;2022-11-20T09:03:27;6.70;99.90
2571;DHT22;1295;51.130;6.732;2022-11-20T09:05:57;6.70;99.90
2571;DHT22;1295;51.130;6.732;2022-11-20T09:08:23;6.60;99.90
2571;DHT22;1295;51.130;6.732;2022-11-20T09:10:51;6.60;99.90
2571;DHT22;1295;51.130;6.732;2022-11-20T09:13:16;6.70;99.90
2571;DHT22;1295;51.130;6.732;2022-11-20T09:15:43;6.60;99.90
2571;DHT22;1295;51.130;6.732;2022-11-20T09:18:08;6.60;99.90
2571;DHT22;1295;51.130;6.732;2022-11-20T09:20:34;6.60;99.90
2571;DHT22;1295;51.130;6.732;2022-11-20T09:23:00;6.70;99.90
2571;DHT22;1295;51.130;6.732;2022-11-20T09:25:25;6.70;99.90
2571;DHT22;1295;51.130;6.732;2022-11-20T09:27:55;6.70;99.90
2571;DHT22;1295;51.130;6.732;2022-11-20T09:30:20;6.70;99.90
2571;DHT22;1295;51.130;6.732;2022-11-20T09:32:46;6.60;99.90
2571;DHT22;1295;51.130;6.732;2022-11-20T09:35:12;6.60;99.90
2571;DHT22;1295;51.130;6.732;2022-11-20T09:37:37;6.60;99.90
2571;DHT22;1295;51.130;6.732;2022-11-20T09:40:04;6.60;99.90
2571;DHT22;1295;51.130;6.732;2022-11-20T09:42:40;6.70;99.90
2571;DHT22;1295;51.130;6.732;2022-11-20T09:45:13;6.70;99.90
2571;DHT22;1295;51.130;6.732;2022-11-20T09:48:03;6.50;99.90
2571;DHT22;1295;51.130;6.732;2022-11-20T09:50:51;6.60;99.90
2571;DHT22;1295;51.130;6.732;2022-11-20T09:53:41;6.60;99.90
2571;DHT22;1295;51.130;6.732;2022-11-20T09:56:00;6.60;99.90
2571;DHT22;1295;51.130;6.732;2022-11-20T09:58:29;6.60;99.90
2571;DHT22;1295;51.130;6.732;2022-11-20T10:00:52;6.40;99.90
2571;DHT22;1295;51.130;6.732;2022-11-20T10:03:20;6.30;99.90
2571;DHT22;1295;51.130;6.732;2022-11-20T10:05:47;6.50;99.90
2571;DHT22;1295;51.130;6.732;2022-11-20T10:08:28;6.30;99.90
2571;DHT22;1295;51.130;6.732;2022-11-20T10:11:00;6.30;99.90
2571;DHT22;1295;51.130;6.732;2022-11-20T10:13:32;6.20;99.90
2571;DHT22;1295;51.130;6.732;2022-11-20T10:16:12;5.70;99.90
2571;DHT22;1295;51.130;6.732;2022-11-20T10:19:13;5.40;99.90
2571;DHT22;1295;51.130;6.732;2022-11-20T10:21:26;5.80;99.90
2571;DHT22;1295;51.130;6.732;2022-11-20T10:29:33;6.70;99.90
2571;DHT22;1295;51.130;6.732;2022-11-20T10:32:01;6.80;99.90
2571;DHT22;1295;51.130;6.732;2022-11-20T10:34:28;6.80;99.90
2571;DHT22;1295;51.130;6.732;2022-11-20T10:36:54;6.60;99.90
2571;DHT22;1295;51.130;6.732;2022-11-20T10:39:25;6.60;99.90
2571;DHT22;1295;51.130;6.732;2022-11-20T10:41:49;6.60;99.90
2571;DHT22;1295;51.130;6.732;2022-11-20T10:44:17;6.50;99.90
2571;DHT22;1295;51.130;6.732;2022-11-20T10:46:44;6.40;99.90
2571;DHT22;1295;51.130;6.732;2022-11-20T10:49:12;6.50;99.90
2571;DHT22;1295;51.130;6.732;2022-11-20T10:51:39;6.60;99.90
2571;DHT22;1295;51.130;6.732;2022-11-20T10:54:29;6.60;99.90
2571;DHT22;1295;51.130;6.732;2022-11-20T10:56:52;6.60;99.90
2571;DHT22;1295;51.130;6.732;2022-11-20T11:01:54;6.60;99.90
2571;DHT22;1295;51.130;6.732;2022-11-20T11:04:32;6.50;99.90
2571;DHT22;1295;51.130;6.732;2022-11-20T11:06:58;6.50;99.90
2571;DHT22;1295;51.130;6.732;2022-11-20T11:09:32;6.20;99.90
2571;DHT22;1295;51.130;6.732;2022-11-20T11:11:46;6.50;99.90
2571;DHT22;1295;51.130;6.732;2022-11-20T11:14:14;6.50;99.90
2571;DHT22;1295;51.130;6.732;2022-11-20T11:16:49;6.60;99.90
2571;DHT22;1295;51.130;6.732;2022-11-20T11:19:14;6.60;99.90
2571;DHT22;1295;51.130;6.732;2022-11-20T11:21:49;6.60;99.90
2571;DHT22;1295;51.130;6.732;2022-11-20T11:24:20;6.70;99.90
2571;DHT22;1295;51.130;6.732;2022-11-20T11:26:51;6.70;99.90
2571;DHT22;1295;51.130;6.732;2022-11-20T11:29:15;6.60;99.90
2571;DHT22;1295;51.130;6.732;2022-11-20T11:31:37;6.60;99.90
2571;DHT22;1295;51.130;6.732;2022-11-20T11:34:06;6.60;99.90
2571;DHT22;1295;51.130;6.732;2022-11-20T11:36:31;6.50;99.90
2571;DHT22;1295;51.130;6.732;2022-11-20T11:38:56;6.40;99.90
2571;DHT22;1295;51.130;6.732;2022-11-20T11:41:24;6.60;99.90
2571;DHT22;1295;51.130;6.732;2022-11-20T11:43:51;6.60;99.90
2571;DHT22;1295;51.130;6.732;2022-11-20T11:46:24;6.60;99.90
2571;DHT22;1295;51.130;6.732;2022-11-20T11:49:17;6.60;99.90
2571;DHT22;1295;51.130;6.732;2022-11-20T11:51:47;6.70;99.90
2571;DHT22;1295;51.130;6.732;2022-11-20T11:54:19;6.70;99.90
2571;DHT22;1295;51.130;6.732;2022-11-20T11:56:42;6.70;99.90
2571;DHT22;1295;51.130;6.732;2022-11-20T11:59:09;6.50;99.90
2571;DHT22;1295;51.130;6.732;2022-11-20T12:01:43;6.10;99.90
2571;DHT22;1295;51.130;6.732;2022-11-20T12:04:17;6.30;99.90
2571;DHT22;1295;51.130;6.732;2022-11-20T12:06:42;6.70;99.90
2571;DHT22;1295;51.130;6.732;2022-11-20T12:09:08;6.70;99.90
2571;DHT22;1295;51.130;6.732;2022-11-20T12:11:34;6.60;99.90
2571;DHT22;1295;51.130;6.732;2022-11-20T12:14:01;6.60;99.90
2571;DHT22;1295;51.130;6.732;2022-11-20T12:16:24;6.70;99.90
2571;DHT22;1295;51.130;6.732;2022-11-20T12:18:50;6.60;99.90
2571;DHT22;1295;51.130;6.732;2022-11-20T12:21:18;6.60;99.90
2571;DHT22;1295;51.130;6.732;2022-11-20T12:23:54;6.50;99.90
2571;DHT22;1295;51.130;6.732;2022-11-20T12:29:34;6.50;99.90
2571;DHT22;1295;51.130;6.732;2022-11-20T12:32:33;6.60;99.90
2571;DHT22;1295;51.130;6.732;2022-11-20T12:38:45;6.60;99.90
2571;DHT22;1295;51.130;6.732;2022-11-20T12:41:02;6.60;99.90
2571;DHT22;1295;51.130;6.732;2022-11-20T12:43:28;6.50;99.90
2571;DHT22;1295;51.130;6.732;2022-11-20T12:46:18;6.40;99.90
2571;DHT22;1295;51.130;6.732;2022-11-20T12:48:47;6.60;99.90
2571;DHT22;1295;51.130;6.732;2022-11-20T12:51:27;6.60;99.90
2571;DHT22;1295;51.130;6.732;2022-11-20T12:54:16;6.50;99.90
2571;DHT22;1295;51.130;6.732;2022-11-20T12:56:47;6.60;99.90
2571;DHT22;1295;51.130;6.732;2022-11-20T13:02:25;6.60;99.90
2571;DHT22;1295;51.130;6.732;2022-11-20T13:05:10;6.50;99.90
2571;DHT22;1295;51.130;6.732;2022-11-20T13:07:32;6.60;99.90
2571;DHT22;1295;51.130;6.732;2022-11-20T13:09:57;6.60;99.90
2571;DHT22;1295;51.130;6.732;2022-11-20T13:12:57;6.60;99.90
2571;DHT22;1295;51.130;6.732;2022-11-20T13:15:08;6.60;99.90
2571;DHT22;1295;51.130;6.732;2022-11-20T13:17:40;6.70;99.90
2571;DHT22;1295;51.130;6.732;2022-11-20T13:20:12;6.70;99.90
2571;DHT22;1295;51.130;6.732;2022-11-20T13:22:44;6.60;99.90
2571;DHT22;1295;51.130;6.732;2022-11-20T13:25:09;6.70;99.90
2571;DHT22;1295;51.130;6.732;2022-11-20T13:27:35;6.60;99.90
2571;DHT22;1295;51.130;6.732;2022-11-20T13:30:12;6.50;99.90
2571;DHT22;1295;51.130;6.732;2022-11-20T13:32:28;6.70;99.90
2571;DHT22;1295;51.130;6.732;2022-11-20T13:34:54;6.70;99.90
2571;DHT22;1295;51.130;6.732;2022-11-20T13:37:25;6.70;99.90
2571;DHT22;1295;51.130;6.732;2022-11-20T13:40:04;6.70;99.90
2571;DHT22;1295;51.130;6.732;2022-11-20T13:42:22;6.60;99.90
2571;DHT22;1295;51.130;6.732;2022-11-20T13:44:48;6.60;99.90
2571;DHT22;1295;51.130;6.732;2022-11-20T13:47:22;6.60;99.90
2571;DHT22;1295;51.130;6.732;2022-11-20T13:49:46;6.60;99.90
2571;DHT22;1295;51.130;6.732;2022-11-20T13:55:20;6.70;99.90
2571;DHT22;1295;51.130;6.732;2022-11-20T13:57:56;6.70;99.90
2571;DHT22;1295;51.130;6.732;2022-11-20T14:00:22;6.70;99.90
2571;DHT22;1295;51.130;6.732;2022-11-20T14:02:52;6.60;99.90
2571;DHT22;1295;51.130;6.732;2022-11-20T14:05:17;6.50;99.90
2571;DHT22;1295;51.130;6.732;2022-11-20T14:07:39;6.60;99.90
2571;DHT22;1295;51.130;6.732;2022-11-20T14:10:04;6.60;99.90
2571;DHT22;1295;51.130;6.732;2022-11-20T14:12:32;6.60;99.90
2571;DHT22;1295;51.130;6.732;2022-11-20T14:14:56;6.40;99.90
2571;DHT22;1295;51.130;6.732;2022-11-20T14:17:24;6.50;99.90
2571;DHT22;1295;51.130;6.732;2022-11-20T14:19:49;6.50;99.90
2571;DHT22;1295;51.130;6.732;2022-11-20T14:22:19;6.50;99.90
2571;DHT22;1295;51.130;6.732;2022-11-20T14:24:43;6.40;99.90
2571;DHT22;1295;51.130;6.732;2022-11-20T14:27:13;6.60;99.90
2571;DHT22;1295;51.130;6.732;2022-11-20T14:29:38;6.50;99.90
2571;DHT22;1295;51.130;6.732;2022-11-20T14:32:04;6.60;99.90
2571;DHT22;1295;51.130;6.732;2022-11-20T14:34:31;6.60;99.90
2571;DHT22;1295;51.130;6.732;2022-11-20T14:36:59;6.60;99.90
2571;DHT22;1295;51.130;6.732;2022-11-20T14:39:29;6.70;99.90
2571;DHT22;1295;51.130;6.732;2022-11-20T14:41:51;6.70;99.90
2571;DHT22;1295;51.130;6.732;2022-11-20T14:44:16;6.70;99.90
2571;DHT22;1295;51.130;6.732;2022-11-20T14:46:42;6.70;99.90
2571;DHT22;1295;51.130;6.732;2022-11-20T14:49:08;6.40;99.90
2571;DHT22;1295;51.130;6.732;2022-11-20T14:51:36;6.60;99.90
2571;DHT22;1295;51.130;6.732;2022-11-20T14:54:11;6.60;99.90
2571;DHT22;1295;51.130;6.732;2022-11-20T14:56:36;6.60;99.90
2571;DHT22;1295;51.130;6.732;2022-11-20T14:59:01;6.60;99.90
2571;DHT22;1295;51.130;6.732;2022-11-20T15:01:28;6.60;99.90
2571;DHT22;1295;51.130;6.732;2022-11-20T15:03:59;6.70;99.90
2571;DHT22;1295;51.130;6.732;2022-11-20T15:06:25;6.70;99.90
2571;DHT22;1295;51.130;6.732;2022-11-20T15:08:51;6.60;99.90
2571;DHT22;1295;51.130;6.732;2022-11-20T15:11:18;6.70;99.90
2571;DHT22;1295;51.130;6.732;2022-11-20T15:13:43;6.60;99.90
2571;DHT22;1295;51.130;6.732;2022-11-20T15:16:14;6.60;99.90
2571;DHT22;1295;51.130;6.732;2022-11-20T15:18:39;6.60;99.90
2571;DHT22;1295;51.130;6.732;2022-11-20T15:21:07;6.60;99.90
2571;DHT22;1295;51.130;6.732;2022-11-20T15:23:29;6.60;99.90
2571;DHT22;1295;51.130;6.732;2022-11-20T15:26:04;6.50;99.90
2571;DHT22;1295;51.130;6.732;2022-11-20T15:28:31;6.50;99.90
2571;DHT22;1295;51.130;6.732;2022-11-20T15:30:56;6.30;99.90
2571;DHT22;1295;51.130;6.732;2022-11-20T15:33:22;6.50;99.90
2571;DHT22;1295;51.130;6.732;2022-11-20T15:35:47;6.60;99.90
2571;DHT22;1295;51.130;6.732;2022-11-20T15:38:13;6.70;99.90
2571;DHT22;1295;51.130;6.732;2022-11-20T15:40:38;6.60;99.90
2571;DHT22;1295;51.130;6.732;2022-11-20T15:43:04;6.70;99.90
2571;DHT22;1295;51.130;6.732;2022-11-20T15:45:37;6.70;99.90
2571;DHT22;1295;51.130;6.732;2022-11-20T15:48:01;6.50;99.90
2571;DHT22;1295;51.130;6.732;2022-11-20T15:50:29;6.60;99.90
2571;DHT22;1295;51.130;6.732;2022-11-20T15:52:52;6.60;99.90
2571;DHT22;1295;51.130;6.732;2022-11-20T15:55:18;6.70;99.90
2571;DHT22;1295;51.130;6.732;2022-11-20T15:57:44;6.60;99.90
2571;DHT22;1295;51.130;6.732;2022-11-20T16:00:11;6.60;99.90
2571;DHT22;1295;51.130;6.732;2022-11-20T16:02:37;6.60;99.90
2571;DHT22;1295;51.130;6.732;2022-11-20T16:05:03;6.70;99.90
2571;DHT22;1295;51.130;6.732;2022-11-20T16:07:29;6.50;99.90
2571;DHT22;1295;51.130;6.732;2022-11-20T16:09:55;6.50;99.90
2571;DHT22;1295;51.130;6.732;2022-11-20T16:12:21;6.40;99.90
2571;DHT22;1295;51.130;6.732;2022-11-20T16:14:53;6.40;99.90
2571;DHT22;1295;51.130;6.732;2022-11-20T16:17:25;6.60;99.90
2571;DHT22;1295;51.130;6.732;2022-11-20T16:19:51;6.40;99.90
2571;DHT22;1295;51.130;6.732;2022-11-20T16:22:17;6.30;99.90
2571;DHT22;1295;51.130;6.732;2022-11-20T16:24:44;6.50;99.90
2571;DHT22;1295;51.130;6.732;2022-11-20T16:27:09;6.50;99.90
2571;DHT22;1295;51.130;6.732;2022-11-20T16:29:35;6.60;99.90
2571;DHT22;1295;51.130;6.732;2022-11-20T16:32:01;6.60;99.90
2571;DHT22;1295;51.130;6.732;2022-11-20T16:34:27;6.60;99.90
2571;DHT22;1295;51.130;6.732;2022-11-20T16:36:53;6.70;99.90
2571;DHT22;1295;51.130;6.732;2022-11-20T16:39:19;6.70;99.90
2571;DHT22;1295;51.130;6.732;2022-11-20T16:41:44;6.70;99.90
2571;DHT22;1295;51.130;6.732;2022-11-20T16:44:11;6.80;99.90